GJS4170 KBTV-KEWR
Flight info
| Callsign | GJS4170 |
|---|---|
| Flight time | 0h 48m |
| Altitude | 32000 |
| Route | HANAA FLOSI4 |
| Aircraft | CRJ7/M-SDFGIRWY/S |
Departure
| Time | 2026-04-21 22:14 |
|---|---|
| Airport | Patrick Leahy Burlington International Airport (KBTV) |
Arrival
| Time | 2026-04-21 23:02 |
|---|---|
| Airport | Newark Liberty International Airport (KEWR) |
| Time | Latitude | Longitude | Altitude | Speed | Heading |
|---|---|---|---|---|---|
| 2026-04-21 21:59 | 44.46818 | -73.15363 | 345 ft | 0 kts | 314° |
| 2026-04-21 22:06 | 44.46807 | -73.15348 | 361 ft | 2 kts | 313° |
| 2026-04-21 22:06 | 44.46798 | -73.15333 | 328 ft | 2 kts | 310° |
| 2026-04-21 22:06 | 44.46787 | -73.15315 | 342 ft | 2 kts | 309° |
| 2026-04-21 22:07 | 44.46776 | -73.15301 | 347 ft | 1 kts | 334° |
| 2026-04-21 22:07 | 44.46775 | -73.15300 | 346 ft | 0 kts | 339° |
| 2026-04-21 22:08 | 44.46779 | -73.15302 | 348 ft | 2 kts | 339° |
| 2026-04-21 22:08 | 44.46784 | -73.15305 | 350 ft | 0 kts | 339° |
| 2026-04-21 22:09 | 44.46793 | -73.15308 | 346 ft | 4 kts | 348° |
| 2026-04-21 22:09 | 44.46835 | -73.15314 | 345 ft | 8 kts | 355° |
| 2026-04-21 22:09 | 44.46912 | -73.15329 | 339 ft | 13 kts | 351° |
| 2026-04-21 22:10 | 44.47008 | -73.15347 | 340 ft | 15 kts | 351° |
| 2026-04-21 22:10 | 44.47112 | -73.15389 | 340 ft | 16 kts | 313° |
| 2026-04-21 22:10 | 44.47188 | -73.15516 | 341 ft | 17 kts | 310° |
| 2026-04-21 22:10 | 44.47272 | -73.15652 | 345 ft | 19 kts | 311° |
| 2026-04-21 22:11 | 44.47354 | -73.15786 | 339 ft | 19 kts | 310° |
| 2026-04-21 22:11 | 44.47452 | -73.15942 | 341 ft | 23 kts | 311° |
| 2026-04-21 22:11 | 44.47567 | -73.16127 | 337 ft | 27 kts | 310° |
| 2026-04-21 22:11 | 44.47683 | -73.16315 | 341 ft | 26 kts | 311° |
| 2026-04-21 22:12 | 44.47791 | -73.16489 | 340 ft | 20 kts | 310° |
| 2026-04-21 22:12 | 44.47862 | -73.16602 | 337 ft | 16 kts | 311° |
| 2026-04-21 22:12 | 44.47954 | -73.16692 | 339 ft | 16 kts | 13° |
| 2026-04-21 22:12 | 44.48041 | -73.16595 | 332 ft | 18 kts | 58° |
| 2026-04-21 22:13 | 44.48023 | -73.16500 | 333 ft | 10 kts | 137° |
| 2026-04-21 22:13 | 44.47946 | -73.16384 | 332 ft | 28 kts | 131° |
| 2026-04-21 22:13 | 44.47667 | -73.15935 | 333 ft | 99 kts | 131° |
| 2026-04-21 22:13 | 44.47065 | -73.14989 | 417 ft | 153 kts | 135° |
| 2026-04-21 22:14 | 44.46297 | -73.13798 | 998 ft | 165 kts | 135° |
| 2026-04-21 22:14 | 44.45556 | -73.12648 | 2065 ft | 156 kts | 137° |
| 2026-04-21 22:14 | 44.44784 | -73.11462 | 2587 ft | 171 kts | 137° |
| 2026-04-21 22:14 | 44.43924 | -73.10179 | 2904 ft | 197 kts | 137° |
| 2026-04-21 22:15 | 44.42917 | -73.08714 | 3374 ft | 218 kts | 137° |
| 2026-04-21 22:15 | 44.41845 | -73.07138 | 4111 ft | 226 kts | 137° |
| 2026-04-21 22:15 | 44.40739 | -73.05510 | 4912 ft | 234 kts | 137° |
| 2026-04-21 22:15 | 44.39610 | -73.03864 | 5634 ft | 241 kts | 137° |
| 2026-04-21 22:16 | 44.38395 | -73.02202 | 6346 ft | 247 kts | 148° |
| 2026-04-21 22:16 | 44.36798 | -73.01451 | 6968 ft | 247 kts | 179° |
| 2026-04-21 22:16 | 44.35091 | -73.01877 | 7364 ft | 256 kts | 208° |
| 2026-04-21 22:16 | 44.33441 | -73.02975 | 7859 ft | 269 kts | 209° |
| 2026-04-21 22:17 | 44.31717 | -73.04087 | 8561 ft | 276 kts | 208° |
| 2026-04-21 22:17 | 44.29926 | -73.05153 | 9237 ft | 284 kts | 206° |
| 2026-04-21 22:17 | 44.28064 | -73.06169 | 9922 ft | 292 kts | 205° |
| 2026-04-21 22:17 | 44.26140 | -73.07164 | 10591 ft | 297 kts | 205° |
| 2026-04-21 22:18 | 44.24187 | -73.08178 | 11256 ft | 302 kts | 206° |
| 2026-04-21 22:18 | 44.22206 | -73.09208 | 11931 ft | 306 kts | 206° |
| 2026-04-21 22:18 | 44.20193 | -73.10249 | 12618 ft | 310 kts | 206° |
| 2026-04-21 22:18 | 44.18156 | -73.11305 | 13271 ft | 315 kts | 207° |
| 2026-04-21 22:19 | 44.16213 | -73.12318 | 13912 ft | 318 kts | 207° |
| 2026-04-21 22:19 | 44.14155 | -73.13388 | 14501 ft | 322 kts | 207° |
| 2026-04-21 22:19 | 44.12046 | -73.14479 | 15069 ft | 325 kts | 208° |
| 2026-04-21 22:19 | 44.09908 | -73.15582 | 15648 ft | 329 kts | 208° |
| 2026-04-21 22:20 | 44.07753 | -73.16703 | 16241 ft | 332 kts | 209° |
| 2026-04-21 22:20 | 44.05577 | -73.17841 | 16837 ft | 335 kts | 209° |
| 2026-04-21 22:20 | 44.03380 | -73.18981 | 17422 ft | 338 kts | 209° |
| 2026-04-21 22:20 | 44.01160 | -73.20128 | 18007 ft | 341 kts | 210° |
| 2026-04-21 22:21 | 43.99682 | -73.20893 | 18395 ft | 343 kts | 210° |
| 2026-04-21 22:21 | 43.96690 | -73.22435 | 19068 ft | 348 kts | 210° |
| 2026-04-21 22:21 | 43.94408 | -73.23608 | 19523 ft | 351 kts | 210° |
| 2026-04-21 22:21 | 43.92104 | -73.24793 | 19980 ft | 355 kts | 210° |
| 2026-04-21 22:22 | 43.90534 | -73.25603 | 20296 ft | 357 kts | 210° |
| 2026-04-21 22:22 | 43.88195 | -73.26803 | 20777 ft | 360 kts | 210° |
| 2026-04-21 22:22 | 43.85861 | -73.27999 | 21220 ft | 364 kts | 210° |
| 2026-04-21 22:22 | 43.83479 | -73.29223 | 21679 ft | 366 kts | 211° |
| 2026-04-21 22:23 | 43.81079 | -73.30452 | 22129 ft | 370 kts | 211° |
| 2026-04-21 22:23 | 43.78658 | -73.31692 | 22568 ft | 373 kts | 211° |
| 2026-04-21 22:23 | 43.76214 | -73.32939 | 22995 ft | 376 kts | 211° |
| 2026-04-21 22:23 | 43.73750 | -73.34197 | 23429 ft | 379 kts | 211° |
| 2026-04-21 22:24 | 43.71261 | -73.35469 | 23847 ft | 382 kts | 211° |
| 2026-04-21 22:24 | 43.68744 | -73.36753 | 24075 ft | 390 kts | 211° |
| 2026-04-21 22:24 | 43.66164 | -73.38064 | 24172 ft | 401 kts | 211° |
| 2026-04-21 22:24 | 43.63506 | -73.39412 | 24220 ft | 413 kts | 210° |
| 2026-04-21 22:25 | 43.60775 | -73.40792 | 24262 ft | 420 kts | 210° |
| 2026-04-21 22:25 | 43.58045 | -73.42169 | 24269 ft | 417 kts | 210° |
| 2026-04-21 22:25 | 43.55359 | -73.43511 | 24271 ft | 414 kts | 210° |
| 2026-04-21 22:25 | 43.52616 | -73.44863 | 24274 ft | 413 kts | 210° |
| 2026-04-21 22:26 | 43.49948 | -73.46175 | 24246 ft | 411 kts | 210° |
| 2026-04-21 22:26 | 43.47263 | -73.47499 | 24233 ft | 408 kts | 210° |
| 2026-04-21 22:26 | 43.44598 | -73.48839 | 24242 ft | 406 kts | 210° |
| 2026-04-21 22:26 | 43.41944 | -73.50172 | 24236 ft | 405 kts | 211° |
| 2026-04-21 22:27 | 43.39305 | -73.51503 | 24215 ft | 403 kts | 211° |
| 2026-04-21 22:27 | 43.36674 | -73.52827 | 24221 ft | 402 kts | 210° |
| 2026-04-21 22:27 | 43.34052 | -73.54148 | 24220 ft | 401 kts | 211° |
| 2026-04-21 22:27 | 43.31426 | -73.55467 | 24225 ft | 402 kts | 210° |
| 2026-04-21 22:28 | 43.28797 | -73.56786 | 24225 ft | 403 kts | 211° |
| 2026-04-21 22:28 | 43.26160 | -73.58112 | 24224 ft | 404 kts | 210° |
| 2026-04-21 22:28 | 43.23519 | -73.59433 | 24234 ft | 406 kts | 210° |
| 2026-04-21 22:28 | 43.20858 | -73.60761 | 24233 ft | 408 kts | 210° |
| 2026-04-21 22:29 | 43.18173 | -73.62080 | 24243 ft | 411 kts | 209° |
| 2026-04-21 22:29 | 43.15476 | -73.63291 | 24250 ft | 416 kts | 207° |
| 2026-04-21 22:29 | 43.12697 | -73.64452 | 24254 ft | 418 kts | 207° |
| 2026-04-21 22:29 | 43.09914 | -73.65628 | 24232 ft | 419 kts | 207° |
| 2026-04-21 22:30 | 43.07124 | -73.66811 | 24246 ft | 420 kts | 207° |
| 2026-04-21 22:30 | 43.04339 | -73.67988 | 24241 ft | 416 kts | 207° |
| 2026-04-21 22:30 | 43.01585 | -73.69150 | 24256 ft | 411 kts | 207° |
| 2026-04-21 22:30 | 42.98864 | -73.70301 | 24261 ft | 407 kts | 207° |
| 2026-04-21 22:31 | 42.96165 | -73.71443 | 24252 ft | 404 kts | 207° |
| 2026-04-21 22:31 | 42.93493 | -73.72575 | 24253 ft | 400 kts | 207° |
| 2026-04-21 22:31 | 42.90836 | -73.73699 | 24254 ft | 398 kts | 207° |
| 2026-04-21 22:31 | 42.88232 | -73.74799 | 24254 ft | 395 kts | 207° |
| 2026-04-21 22:32 | 42.85614 | -73.75902 | 24218 ft | 392 kts | 207° |
| 2026-04-21 22:32 | 42.83013 | -73.76999 | 24227 ft | 390 kts | 207° |
| 2026-04-21 22:32 | 42.80426 | -73.78087 | 24236 ft | 388 kts | 207° |
| 2026-04-21 22:32 | 42.77853 | -73.79175 | 24242 ft | 386 kts | 207° |
| 2026-04-21 22:33 | 42.75288 | -73.80260 | 24246 ft | 386 kts | 207° |
| 2026-04-21 22:33 | 42.72714 | -73.81339 | 24248 ft | 387 kts | 207° |
| 2026-04-21 22:33 | 42.70146 | -73.82425 | 24247 ft | 387 kts | 208° |
| 2026-04-21 22:33 | 42.67591 | -73.83552 | 24235 ft | 386 kts | 208° |
| 2026-04-21 22:34 | 42.65032 | -73.84696 | 24240 ft | 386 kts | 208° |
| 2026-04-21 22:34 | 42.62476 | -73.85843 | 24246 ft | 386 kts | 208° |
| 2026-04-21 22:34 | 42.59920 | -73.86988 | 24248 ft | 387 kts | 208° |
| 2026-04-21 22:34 | 42.57356 | -73.88132 | 24251 ft | 387 kts | 208° |
| 2026-04-21 22:35 | 42.54799 | -73.89274 | 24254 ft | 387 kts | 208° |
| 2026-04-21 22:35 | 42.52236 | -73.90420 | 24255 ft | 388 kts | 208° |
| 2026-04-21 22:35 | 42.49672 | -73.91567 | 24261 ft | 388 kts | 208° |
| 2026-04-21 22:35 | 42.47147 | -73.92714 | 24237 ft | 387 kts | 208° |
| 2026-04-21 22:36 | 42.42035 | -73.95041 | 24244 ft | 388 kts | 208° |
| 2026-04-21 22:36 | 42.39465 | -73.96184 | 24247 ft | 388 kts | 208° |
| 2026-04-21 22:36 | 42.36896 | -73.97316 | 24251 ft | 389 kts | 208° |
| 2026-04-21 22:37 | 42.34327 | -73.98450 | 24253 ft | 389 kts | 208° |
| 2026-04-21 22:37 | 42.31752 | -73.99590 | 24257 ft | 389 kts | 208° |
| 2026-04-21 22:37 | 42.29178 | -74.00736 | 24234 ft | 389 kts | 208° |
| 2026-04-21 22:37 | 42.26600 | -74.01884 | 24245 ft | 389 kts | 208° |
| 2026-04-21 22:38 | 42.24031 | -74.03027 | 24250 ft | 389 kts | 208° |
| 2026-04-21 22:38 | 42.21456 | -74.04182 | 24253 ft | 389 kts | 208° |
| 2026-04-21 22:38 | 42.18886 | -74.05338 | 24240 ft | 389 kts | 208° |
| 2026-04-21 22:38 | 42.16311 | -74.06468 | 24226 ft | 389 kts | 208° |
| 2026-04-21 22:39 | 42.13715 | -74.07636 | 23870 ft | 399 kts | 208° |
| 2026-04-21 22:39 | 42.11111 | -74.08786 | 23069 ft | 396 kts | 207° |
| 2026-04-21 22:39 | 42.08508 | -74.09929 | 22344 ft | 389 kts | 207° |
| 2026-04-21 22:39 | 42.05959 | -74.11052 | 21655 ft | 383 kts | 207° |
| 2026-04-21 22:40 | 42.03438 | -74.12140 | 20957 ft | 379 kts | 207° |
| 2026-04-21 22:40 | 42.00930 | -74.13242 | 20290 ft | 377 kts | 207° |
| 2026-04-21 22:40 | 41.98450 | -74.14326 | 19618 ft | 373 kts | 207° |
| 2026-04-21 22:40 | 41.95996 | -74.15399 | 18975 ft | 369 kts | 206° |
| 2026-04-21 22:41 | 41.93572 | -74.16468 | 18316 ft | 365 kts | 207° |
| 2026-04-21 22:41 | 41.91168 | -74.17525 | 17554 ft | 361 kts | 206° |
| 2026-04-21 22:41 | 41.88791 | -74.18559 | 16853 ft | 357 kts | 206° |
| 2026-04-21 22:41 | 41.86471 | -74.19575 | 16176 ft | 353 kts | 206° |
| 2026-04-21 22:42 | 41.84145 | -74.20578 | 15498 ft | 349 kts | 206° |
| 2026-04-21 22:42 | 41.81841 | -74.21574 | 14846 ft | 346 kts | 206° |
| 2026-04-21 22:42 | 41.79564 | -74.22564 | 14223 ft | 342 kts | 206° |
| 2026-04-21 22:42 | 41.77312 | -74.23549 | 13534 ft | 338 kts | 206° |
| 2026-04-21 22:43 | 41.75080 | -74.24521 | 12855 ft | 335 kts | 206° |
| 2026-04-21 22:43 | 41.72872 | -74.25485 | 12187 ft | 332 kts | 206° |
| 2026-04-21 22:43 | 41.70685 | -74.26442 | 11539 ft | 330 kts | 205° |
| 2026-04-21 22:43 | 41.68517 | -74.27383 | 10859 ft | 322 kts | 206° |
| 2026-04-21 22:44 | 41.66444 | -74.28275 | 10204 ft | 312 kts | 205° |
| 2026-04-21 22:44 | 41.64406 | -74.29130 | 9493 ft | 303 kts | 205° |
| 2026-04-21 22:44 | 41.62427 | -74.29968 | 8798 ft | 295 kts | 204° |
| 2026-04-21 22:44 | 41.60500 | -74.30796 | 8118 ft | 287 kts | 204° |
| 2026-04-21 22:45 | 41.58616 | -74.31615 | 7525 ft | 279 kts | 203° |
| 2026-04-21 22:45 | 41.56815 | -74.32408 | 7248 ft | 268 kts | 204° |
| 2026-04-21 22:45 | 41.55064 | -74.33182 | 7129 ft | 264 kts | 203° |
| 2026-04-21 22:45 | 41.53319 | -74.33929 | 7068 ft | 262 kts | 202° |
| 2026-04-21 22:46 | 41.51581 | -74.34659 | 7039 ft | 260 kts | 202° |
| 2026-04-21 22:46 | 41.49867 | -74.35391 | 7023 ft | 259 kts | 203° |
| 2026-04-21 22:46 | 41.48153 | -74.36140 | 7050 ft | 259 kts | 203° |
| 2026-04-21 22:46 | 41.46430 | -74.36878 | 7052 ft | 259 kts | 202° |
| 2026-04-21 22:47 | 41.44734 | -74.37608 | 7053 ft | 259 kts | 202° |
| 2026-04-21 22:47 | 41.43016 | -74.38341 | 7051 ft | 259 kts | 202° |
| 2026-04-21 22:47 | 41.41299 | -74.39089 | 7045 ft | 259 kts | 202° |
| 2026-04-21 22:47 | 41.39584 | -74.39830 | 7052 ft | 259 kts | 202° |
| 2026-04-21 22:48 | 41.37866 | -74.40562 | 7053 ft | 259 kts | 202° |
| 2026-04-21 22:48 | 41.36153 | -74.41301 | 7053 ft | 259 kts | 202° |
| 2026-04-21 22:48 | 41.34437 | -74.42039 | 7048 ft | 259 kts | 202° |
| 2026-04-21 22:48 | 41.32718 | -74.42770 | 7037 ft | 260 kts | 202° |
| 2026-04-21 22:49 | 41.30992 | -74.43491 | 7042 ft | 260 kts | 202° |
| 2026-04-21 22:49 | 41.29261 | -74.44219 | 7046 ft | 261 kts | 202° |
| 2026-04-21 22:49 | 41.27436 | -74.44394 | 7043 ft | 272 kts | 170° |
| 2026-04-21 22:49 | 41.25715 | -74.43310 | 7061 ft | 274 kts | 151° |
| 2026-04-21 22:50 | 41.24121 | -74.41974 | 7058 ft | 274 kts | 149° |
| 2026-04-21 22:50 | 41.22530 | -74.40574 | 7072 ft | 275 kts | 148° |
| 2026-04-21 22:50 | 41.20947 | -74.39143 | 7063 ft | 275 kts | 148° |
| 2026-04-21 22:50 | 41.19372 | -74.37698 | 7063 ft | 275 kts | 147° |
| 2026-04-21 22:51 | 41.17800 | -74.36241 | 7055 ft | 275 kts | 147° |
| 2026-04-21 22:51 | 41.16229 | -74.34789 | 7040 ft | 274 kts | 146° |
| 2026-04-21 22:51 | 41.14666 | -74.33347 | 7052 ft | 274 kts | 147° |
| 2026-04-21 22:51 | 41.13090 | -74.31917 | 6971 ft | 277 kts | 147° |
| 2026-04-21 22:52 | 41.11504 | -74.30457 | 6750 ft | 275 kts | 147° |
| 2026-04-21 22:52 | 41.09947 | -74.29086 | 6501 ft | 264 kts | 147° |
| 2026-04-21 22:52 | 41.08461 | -74.27714 | 6212 ft | 256 kts | 147° |
| 2026-04-21 22:52 | 41.07008 | -74.26403 | 5944 ft | 250 kts | 148° |
| 2026-04-21 22:53 | 41.05593 | -74.25120 | 5672 ft | 244 kts | 148° |
| 2026-04-21 22:53 | 41.04217 | -74.23839 | 5379 ft | 239 kts | 148° |
| 2026-04-21 22:53 | 41.02888 | -74.22575 | 5199 ft | 229 kts | 147° |
| 2026-04-21 22:53 | 41.01612 | -74.21342 | 5131 ft | 225 kts | 147° |
| 2026-04-21 22:54 | 41.00340 | -74.20106 | 4876 ft | 231 kts | 147° |
| 2026-04-21 22:54 | 40.99021 | -74.18847 | 4560 ft | 237 kts | 147° |
| 2026-04-21 22:54 | 40.97689 | -74.17576 | 4289 ft | 232 kts | 147° |
| 2026-04-21 22:54 | 40.96421 | -74.16342 | 4147 ft | 219 kts | 147° |
| 2026-04-21 22:55 | 40.95228 | -74.15192 | 4088 ft | 206 kts | 147° |
| 2026-04-21 22:55 | 40.94092 | -74.14087 | 4055 ft | 199 kts | 147° |
| 2026-04-21 22:55 | 40.92967 | -74.13000 | 4050 ft | 202 kts | 147° |
| 2026-04-21 22:55 | 40.91830 | -74.11918 | 4060 ft | 205 kts | 147° |
| 2026-04-21 22:56 | 40.90658 | -74.10813 | 4068 ft | 208 kts | 147° |
| 2026-04-21 22:56 | 40.89441 | -74.09675 | 3840 ft | 222 kts | 148° |
| 2026-04-21 22:56 | 40.88170 | -74.08453 | 3552 ft | 224 kts | 148° |
| 2026-04-21 22:56 | 40.86935 | -74.07252 | 3282 ft | 216 kts | 147° |
| 2026-04-21 22:57 | 40.85750 | -74.06102 | 3164 ft | 203 kts | 147° |
| 2026-04-21 22:57 | 40.84529 | -74.05448 | 3071 ft | 179 kts | 186° |
| 2026-04-21 22:57 | 40.83529 | -74.06099 | 3065 ft | 152 kts | 229° |
| 2026-04-21 22:57 | 40.82836 | -74.07089 | 3034 ft | 143 kts | 224° |
| 2026-04-21 22:58 | 40.81939 | -74.07665 | 2950 ft | 139 kts | 200° |
| 2026-04-21 22:58 | 40.81117 | -74.08076 | 2868 ft | 125 kts | 207° |
| 2026-04-21 22:58 | 40.80271 | -74.08612 | 2585 ft | 140 kts | 207° |
| 2026-04-21 22:58 | 40.79384 | -74.09185 | 2344 ft | 147 kts | 206° |
| 2026-04-21 22:59 | 40.78489 | -74.09860 | 2015 ft | 145 kts | 214° |
| 2026-04-21 22:59 | 40.77747 | -74.10604 | 1791 ft | 125 kts | 214° |
| 2026-04-21 22:59 | 40.77034 | -74.11328 | 1589 ft | 131 kts | 213° |
| 2026-04-21 22:59 | 40.76273 | -74.12018 | 1441 ft | 135 kts | 209° |
| 2026-04-21 23:00 | 40.75436 | -74.12634 | 1219 ft | 142 kts | 204° |
| 2026-04-21 23:00 | 40.74518 | -74.13162 | 941 ft | 146 kts | 200° |
| 2026-04-21 23:00 | 40.73623 | -74.13677 | 734 ft | 135 kts | 201° |
| 2026-04-21 23:00 | 40.72792 | -74.14238 | 603 ft | 139 kts | 203° |
| 2026-04-21 23:01 | 40.71897 | -74.14821 | 371 ft | 146 kts | 203° |
| 2026-04-21 23:01 | 40.71033 | -74.15366 | 211 ft | 135 kts | 199° |
| 2026-04-21 23:01 | 40.70209 | -74.15867 | 70 ft | 126 kts | 201° |
| 2026-04-21 23:01 | 40.69447 | -74.16347 | 21 ft | 117 kts | 199° |
| 2026-04-21 23:02 | 40.68867 | -74.16718 | 19 ft | 38 kts | 206° |
| 2026-04-21 23:02 | 40.68734 | -74.16885 | 18 ft | 19 kts | 236° |
| 2026-04-21 23:02 | 40.68669 | -74.17012 | 19 ft | 11 kts | 235° |
| 2026-04-21 23:02 | 40.68666 | -74.17017 | 19 ft | 0 kts | 235° |
| 2026-04-21 23:04 | 40.68654 | -74.17040 | 19 ft | 7 kts | 235° |
| 2026-04-21 23:04 | 40.68621 | -74.17126 | 19 ft | 12 kts | 273° |
| 2026-04-21 23:04 | 40.68664 | -74.17254 | 20 ft | 19 kts | 296° |
| 2026-04-21 23:04 | 40.68729 | -74.17356 | 19 ft | 13 kts | 13° |
| 2026-04-21 23:05 | 40.68833 | -74.17284 | 19 ft | 21 kts | 26° |
| 2026-04-21 23:05 | 40.68959 | -74.17205 | 18 ft | 23 kts | 25° |
| 2026-04-21 23:05 | 40.69116 | -74.17105 | 18 ft | 24 kts | 27° |
| 2026-04-21 23:05 | 40.69191 | -74.17064 | 18 ft | 12 kts | 351° |
| 2026-04-21 23:06 | 40.69244 | -74.17127 | 18 ft | 8 kts | 340° |
| 2026-04-21 23:06 | 40.69304 | -74.17104 | 18 ft | 11 kts | 22° |
| 2026-04-21 23:06 | 40.69389 | -74.17072 | 18 ft | 12 kts | 2° |
| 2026-04-21 23:06 | 40.69485 | -74.17070 | 18 ft | 11 kts | 348° |
| 2026-04-21 23:07 | 40.69507 | -74.17076 | 19 ft | 3 kts | 347° |
| 2026-04-21 23:07 | 40.69539 | -74.17086 | 20 ft | 7 kts | 347° |
| 2026-04-21 23:07 | 40.69616 | -74.17117 | 18 ft | 16 kts | 338° |
| 2026-04-21 23:07 | 40.69719 | -74.17187 | 18 ft | 12 kts | 328° |
| 2026-04-21 23:08 | 40.69724 | -74.17252 | 19 ft | 9 kts | 248° |
| 2026-04-21 23:08 | 40.69695 | -74.17336 | 20 ft | 12 kts | 225° |
| 2026-04-21 23:08 | 40.69635 | -74.17408 | 19 ft | 9 kts | 219° |
| 2026-04-21 23:08 | 40.69609 | -74.17443 | 18 ft | 1 kts | 258° |
| 2026-04-21 23:09 | 40.69612 | -74.17463 | 18 ft | 5 kts | 291° |
| 2026-04-21 23:09 | 40.69641 | -74.17517 | 19 ft | 10 kts | 309° |
| 2026-04-21 23:09 | 40.69657 | -74.17543 | 20 ft | 0 kts | 310° |